createdAt,value
2018-09-20T09:33:59.085Z,49.40
2018-09-20T09:34:29.998Z,49.70
2018-09-20T09:35:00.913Z,49.60
2018-09-20T09:35:31.823Z,49.50
2018-09-20T09:36:02.738Z,49.40
2018-09-20T09:36:33.673Z,49.30
2018-09-20T09:37:04.603Z,49.40
2018-09-20T09:37:35.518Z,49.30
2018-09-20T09:38:06.468Z,49.10
2018-09-20T09:38:37.385Z,49.20
2018-09-20T09:39:08.306Z,49.00
2018-09-20T09:39:39.221Z,48.90
2018-09-20T09:40:10.141Z,48.70
2018-09-20T09:40:41.066Z,48.70
2018-09-20T09:41:11.985Z,48.70
2018-09-20T09:41:42.901Z,48.70
2018-09-20T09:42:13.828Z,48.60
2018-09-20T09:42:44.763Z,48.70
2018-09-20T09:43:15.681Z,48.70
2018-09-20T09:43:46.644Z,48.60
2018-09-20T09:44:18.183Z,48.60
2018-09-20T09:44:49.154Z,48.70
2018-09-20T09:45:20.073Z,48.70
2018-09-20T09:45:50.993Z,48.80
2018-09-20T09:46:21.910Z,48.80
2018-09-20T09:46:52.825Z,48.70
2018-09-20T09:47:23.735Z,48.70
2018-09-20T09:47:54.690Z,48.60
2018-09-20T09:48:25.585Z,48.80
2018-09-20T09:48:56.497Z,48.90
2018-09-20T09:49:27.472Z,48.90
2018-09-20T09:49:58.381Z,49.00
2018-09-20T09:50:29.298Z,49.00
2018-09-20T09:51:00.222Z,48.90
2018-09-20T09:51:31.145Z,49.00
2018-09-20T09:57:00.466Z,48.20
2018-09-20T10:12:23.537Z,48.30
2018-09-20T10:12:54.927Z,47.80
2018-09-20T10:13:28.087Z,48.10
2018-09-20T10:14:39.603Z,47.60
2018-09-20T10:15:13.404Z,47.40
2018-09-20T10:15:45.475Z,47.90
2018-09-20T10:16:17.417Z,47.20
2018-09-20T10:16:50.502Z,46.80
2018-09-20T10:17:24.046Z,47.20
2018-09-20T10:17:55.912Z,47.20
2018-09-20T10:18:28.939Z,47.20
